createdAt,value
2022-10-23T00:00:27.345Z,0.00
2022-10-23T00:01:27.272Z,0.00
2022-10-23T00:02:27.352Z,0.00
2022-10-23T00:03:27.250Z,0.00
2022-10-23T00:04:27.236Z,0.00
2022-10-23T00:05:27.230Z,0.00
2022-10-23T00:06:27.215Z,0.00
2022-10-23T00:07:27.269Z,0.00
2022-10-23T00:08:27.191Z,0.00
2022-10-23T00:09:27.183Z,0.00
2022-10-23T00:10:27.170Z,0.00
2022-10-23T00:11:27.158Z,0.00
2022-10-23T00:12:27.167Z,0.00
2022-10-23T00:13:27.140Z,0.00
2022-10-23T00:14:27.162Z,0.00
2022-10-23T00:15:27.134Z,0.00
2022-10-23T00:16:27.099Z,0.00
2022-10-23T00:17:27.111Z,0.00
2022-10-23T00:18:27.079Z,0.00
2022-10-23T00:19:27.089Z,0.00
2022-10-23T00:20:27.058Z,0.00
2022-10-23T00:21:27.046Z,0.00
2022-10-23T00:22:27.053Z,0.00
2022-10-23T00:23:27.022Z,0.00
2022-10-23T00:24:27.013Z,0.00
2022-10-23T00:25:27.019Z,0.00
2022-10-23T00:26:26.989Z,0.00
2022-10-23T00:27:26.997Z,0.00
2022-10-23T00:28:26.965Z,0.00
2022-10-23T00:29:26.979Z,0.00
2022-10-23T00:30:26.961Z,0.00
2022-10-23T00:31:26.967Z,0.00
2022-10-23T00:32:26.987Z,0.00
2022-10-23T00:33:26.909Z,0.00
2022-10-23T00:34:26.900Z,0.00
2022-10-23T00:35:26.887Z,0.00
2022-10-23T00:36:26.895Z,0.00
2022-10-23T00:37:26.862Z,0.00
2022-10-23T00:38:26.850Z,0.00
2022-10-23T00:39:26.843Z,0.00
2022-10-23T00:40:26.828Z,0.00
2022-10-23T00:41:26.839Z,0.00
2022-10-23T00:42:26.806Z,0.00
2022-10-23T00:43:26.794Z,0.00
2022-10-23T00:44:26.783Z,0.00
2022-10-23T00:45:26.775Z,0.00
2022-10-23T00:46:26.797Z,0.00
2022-10-23T00:47:26.750Z,0.00
2022-10-23T00:48:26.737Z,0.00
2022-10-23T00:49:26.728Z,0.00
2022-10-23T00:50:26.715Z,0.00
2022-10-23T00:51:26.725Z,0.00
2022-10-23T00:52:26.692Z,0.00
2022-10-23T00:53:26.688Z,0.00
2022-10-23T00:54:26.670Z,0.00
2022-10-23T00:55:26.681Z,0.00
2022-10-23T00:56:26.670Z,0.00
2022-10-23T00:57:26.637Z,0.00
2022-10-23T00:58:26.625Z,0.00
2022-10-23T00:59:26.637Z,0.00
2022-10-23T01:00:26.602Z,0.00
2022-10-23T01:01:26.770Z,0.00
2022-10-23T01:02:26.663Z,0.00
2022-10-23T01:03:26.592Z,0.00
2022-10-23T01:04:26.555Z,0.00
2022-10-23T01:05:26.549Z,0.00
2022-10-23T01:06:26.555Z,0.00
2022-10-23T01:07:26.529Z,0.00
2022-10-23T01:08:26.510Z,0.00
2022-10-23T01:09:26.500Z,0.00
2022-10-23T01:10:26.488Z,0.00
2022-10-23T01:11:26.498Z,0.00
2022-10-23T01:12:26.468Z,0.00
2022-10-23T01:13:26.456Z,0.00
2022-10-23T01:14:26.443Z,0.00
2022-10-23T01:15:26.452Z,0.00
2022-10-23T01:16:26.440Z,0.00
2022-10-23T01:17:26.410Z,0.00
2022-10-23T01:18:26.436Z,0.00
2022-10-23T01:19:26.385Z,0.00
2022-10-23T01:20:26.375Z,0.00
2022-10-23T01:21:26.384Z,0.00
2022-10-23T01:22:26.377Z,0.00
2022-10-23T01:23:26.341Z,0.00
2022-10-23T01:24:26.342Z,0.00
2022-10-23T01:25:26.321Z,0.00
2022-10-23T01:26:26.308Z,0.00
2022-10-23T01:27:26.315Z,0.00
2022-10-23T01:28:26.306Z,0.00
2022-10-23T01:29:26.272Z,0.00
2022-10-23T01:30:26.285Z,0.00
2022-10-23T01:31:26.249Z,0.00
2022-10-23T01:32:26.258Z,0.00
2022-10-23T01:33:26.248Z,0.00
2022-10-23T01:34:26.235Z,0.00
2022-10-23T01:35:26.204Z,0.00
2022-10-23T01:36:26.197Z,0.00
2022-10-23T01:37:26.182Z,0.00
2022-10-23T01:38:26.194Z,0.00
2022-10-23T01:39:26.158Z,0.00
2022-10-23T01:40:26.149Z,0.00
2022-10-23T01:41:26.138Z,0.00
2022-10-23T01:42:26.126Z,0.00
2022-10-23T01:43:26.137Z,0.00
2022-10-23T01:44:26.104Z,0.00
2022-10-23T01:45:26.091Z,0.00
2022-10-23T01:46:26.080Z,0.00
2022-10-23T01:47:26.103Z,0.00
2022-10-23T01:48:26.113Z,0.00
2022-10-23T01:49:26.044Z,0.00
2022-10-23T01:50:26.055Z,0.00
2022-10-23T01:51:26.027Z,0.00
2022-10-23T01:52:26.020Z,0.00
2022-10-23T01:53:26.022Z,0.00
2022-10-23T01:54:25.990Z,0.00
2022-10-23T01:55:25.976Z,0.00
2022-10-23T01:56:25.967Z,0.00
2022-10-23T01:57:25.957Z,0.00
2022-10-23T01:58:25.948Z,0.00
2022-10-23T01:59:26.077Z,0.00
2022-10-23T02:00:25.925Z,0.00
2022-10-23T02:01:26.085Z,0.00
2022-10-23T02:02:25.944Z,0.00
2022-10-23T02:03:25.888Z,0.00
2022-10-23T02:04:25.897Z,0.00
2022-10-23T02:05:25.885Z,0.00
2022-10-23T02:06:25.871Z,0.00
2022-10-23T02:07:25.868Z,0.00
2022-10-23T02:08:25.830Z,0.00
2022-10-23T02:09:25.823Z,0.00
2022-10-23T02:10:25.812Z,0.00
2022-10-23T02:11:25.798Z,0.00
2022-10-23T02:13:25.802Z,0.00
2022-10-23T02:14:25.763Z,0.00
2022-10-23T02:15:25.773Z,0.00
2022-10-23T02:16:25.740Z,0.00
2022-10-23T02:17:25.778Z,0.00
2022-10-23T02:18:25.721Z,0.00
2022-10-23T02:19:25.708Z,0.00
2022-10-23T02:20:25.752Z,0.00
2022-10-23T02:21:25.846Z,0.00
2022-10-23T02:22:25.753Z,0.00
2022-10-23T02:23:25.663Z,0.00
2022-10-23T02:24:25.649Z,0.00
2022-10-23T02:25:25.691Z,0.00
2022-10-23T02:26:25.659Z,0.00
2022-10-23T02:27:25.686Z,0.00
2022-10-23T02:28:25.605Z,0.00
2022-10-23T02:29:25.593Z,0.00
2022-10-23T02:30:25.623Z,0.00
2022-10-23T02:31:25.663Z,0.00
2022-10-23T02:32:25.559Z,0.00
2022-10-23T02:33:25.633Z,0.00
2022-10-23T02:34:25.616Z,0.00
2022-10-23T02:35:25.579Z,0.00
2022-10-23T02:36:25.691Z,0.00
2022-10-23T02:37:25.612Z,0.00
2022-10-23T02:38:25.553Z,0.00
2022-10-23T02:39:25.525Z,0.00
2022-10-23T02:40:25.467Z,0.00
2022-10-23T02:41:25.463Z,0.00
2022-10-23T02:42:25.595Z,0.00
2022-10-23T02:43:25.599Z,0.00
2022-10-23T02:44:25.440Z,0.00
2022-10-23T02:45:25.435Z,0.00
2022-10-23T02:46:25.441Z,0.00
2022-10-23T02:47:25.391Z,0.00
2022-10-23T02:48:25.381Z,0.00
2022-10-23T02:49:25.367Z,0.00
2022-10-23T02:50:25.379Z,0.00
2022-10-23T02:51:25.344Z,0.00
2022-10-23T02:52:25.352Z,0.00
2022-10-23T02:53:25.327Z,0.00
2022-10-23T02:54:25.326Z,0.00
2022-10-23T02:55:25.299Z,0.00
2022-10-23T02:56:25.303Z,0.00
2022-10-23T02:57:25.297Z,0.00
2022-10-23T02:58:25.267Z,0.00
2022-10-23T02:59:25.264Z,0.00
2022-10-23T03:00:25.311Z,0.00
2022-10-23T03:01:25.340Z,0.00
2022-10-23T03:02:25.945Z,0.00
2022-10-23T03:03:25.212Z,0.00
2022-10-23T03:04:25.199Z,0.00
2022-10-23T03:05:25.186Z,0.00
2022-10-23T03:06:25.189Z,0.00
2022-10-23T03:07:25.183Z,0.00
2022-10-23T03:08:25.152Z,0.00
2022-10-23T03:09:25.145Z,0.00
2022-10-23T03:10:25.148Z,0.00
2022-10-23T03:11:25.117Z,0.00
2022-10-23T03:12:25.129Z,0.00
2022-10-23T03:13:25.094Z,0.00
2022-10-23T03:14:25.380Z,0.00
2022-10-23T03:15:25.076Z,0.00
2022-10-23T03:16:25.060Z,0.00
2022-10-23T03:17:25.049Z,0.00
2022-10-23T03:18:25.038Z,0.00
2022-10-23T03:19:25.051Z,0.00
2022-10-23T03:20:25.015Z,0.00
2022-10-23T03:21:25.005Z,0.00
2022-10-23T03:22:24.993Z,0.00
2022-10-23T03:23:24.981Z,0.00
2022-10-23T03:24:24.988Z,0.00
2022-10-23T03:25:24.979Z,0.00
2022-10-23T03:26:24.961Z,0.00
2022-10-23T03:27:25.018Z,0.00
2022-10-23T03:28:24.923Z,0.00
2022-10-23T03:29:24.935Z,0.00
2022-10-23T03:30:24.903Z,0.00
2022-10-23T03:31:24.889Z,0.00
2022-10-23T03:32:24.877Z,0.00
2022-10-23T03:33:24.874Z,0.00
2022-10-23T03:34:24.879Z,0.00
2022-10-23T03:35:24.844Z,0.00
2022-10-23T03:36:24.831Z,0.00
2022-10-23T03:37:24.821Z,0.00
2022-10-23T03:38:24.815Z,0.00
2022-10-23T03:39:24.799Z,0.00
2022-10-23T03:40:24.839Z,0.00
2022-10-23T03:41:24.778Z,0.00
2022-10-23T03:42:24.788Z,0.00
2022-10-23T03:43:24.779Z,0.00
2022-10-23T03:44:24.761Z,0.00
2022-10-23T03:45:24.731Z,0.00
2022-10-23T03:46:24.742Z,0.00
2022-10-23T03:47:24.729Z,0.00
2022-10-23T03:48:24.716Z,0.00
2022-10-23T03:49:24.706Z,0.00
2022-10-23T03:50:24.699Z,0.00
2022-10-23T03:51:24.664Z,0.00
2022-10-23T03:53:24.662Z,0.00
2022-10-23T03:54:24.628Z,0.00
2022-10-23T03:55:24.617Z,0.00
2022-10-23T03:56:24.605Z,0.00
2022-10-23T03:57:24.595Z,0.00
2022-10-23T03:58:24.621Z,0.00
2022-10-23T03:59:24.577Z,0.00
2022-10-23T04:00:24.559Z,0.00
2022-10-23T04:01:24.708Z,0.00
2022-10-23T04:02:24.667Z,0.00
2022-10-23T04:03:24.553Z,0.00
2022-10-23T04:04:24.534Z,0.00
2022-10-23T04:05:24.503Z,0.00
2022-10-23T04:06:24.490Z,0.00
2022-10-23T04:07:24.482Z,0.00
2022-10-23T04:08:24.468Z,0.00
2022-10-23T04:09:24.481Z,0.00
2022-10-23T04:10:24.470Z,0.00
2022-10-23T04:11:24.435Z,0.00
2022-10-23T04:12:24.422Z,0.00
2022-10-23T04:13:24.415Z,0.00
2022-10-23T04:14:24.417Z,0.00
2022-10-23T04:15:24.412Z,0.00
2022-10-23T04:16:24.401Z,0.00
2022-10-23T04:17:24.412Z,0.00
2022-10-23T04:18:24.354Z,0.00
2022-10-23T04:19:24.344Z,0.00
2022-10-23T04:20:24.332Z,0.00
2022-10-23T04:21:24.345Z,0.00
2022-10-23T04:22:27.487Z,0.00
2022-10-23T04:23:24.303Z,0.00
2022-10-23T04:24:24.289Z,0.00
2022-10-23T04:25:24.276Z,0.00
2022-10-23T04:26:24.287Z,0.00
2022-10-23T04:27:24.277Z,0.00
2022-10-23T04:28:24.242Z,0.00
2022-10-23T04:29:24.232Z,0.00
2022-10-23T04:30:24.236Z,0.00
2022-10-23T04:31:24.211Z,0.00
2022-10-23T04:32:24.218Z,0.00
2022-10-23T04:33:24.215Z,0.00
2022-10-23T04:34:24.172Z,0.00
2022-10-23T04:35:24.163Z,0.00
2022-10-23T04:36:24.149Z,0.00
2022-10-23T04:37:24.140Z,0.00
2022-10-23T04:38:24.150Z,0.00
2022-10-23T04:39:24.150Z,0.00
2022-10-23T04:40:24.105Z,0.00
2022-10-23T04:41:24.116Z,0.00
2022-10-23T04:42:24.136Z,0.00
2022-10-23T04:43:24.091Z,0.00
2022-10-23T04:44:24.058Z,0.00
2022-10-23T04:45:24.049Z,0.00
2022-10-23T04:46:24.075Z,0.00
2022-10-23T04:47:24.027Z,0.00
2022-10-23T04:48:26.894Z,0.00
2022-10-23T04:49:25.023Z,0.00
2022-10-23T04:50:23.990Z,0.00
2022-10-23T04:51:23.980Z,0.00
2022-10-23T04:52:23.988Z,0.00
2022-10-23T04:53:23.958Z,0.00
2022-10-23T04:54:23.986Z,0.00
2022-10-23T04:55:23.935Z,0.00
2022-10-23T04:56:23.943Z,0.00
2022-10-23T04:57:23.911Z,0.00
2022-10-23T04:58:23.898Z,0.00
2022-10-23T04:59:23.909Z,0.00
2022-10-23T05:00:23.881Z,0.00
2022-10-23T05:01:24.006Z,0.00
2022-10-23T05:02:23.871Z,0.00
2022-10-23T05:03:23.864Z,0.00
2022-10-23T05:04:23.830Z,0.00
2022-10-23T05:05:23.823Z,0.00
2022-10-23T05:06:23.834Z,0.00
2022-10-23T05:07:23.800Z,0.00
2022-10-23T05:08:23.789Z,0.00
2022-10-23T05:09:23.796Z,0.00
2022-10-23T05:10:23.762Z,0.00
2022-10-23T05:11:23.753Z,0.00
2022-10-23T05:12:23.739Z,0.00
2022-10-23T05:13:23.730Z,0.00
2022-10-23T05:14:23.737Z,0.00
2022-10-23T05:15:23.705Z,0.00
2022-10-23T05:16:23.716Z,0.00
2022-10-23T05:17:23.683Z,0.00
2022-10-23T05:18:23.690Z,0.00
2022-10-23T05:19:24.462Z,0.00
2022-10-23T05:20:23.649Z,0.00
2022-10-23T05:21:23.637Z,0.00
2022-10-23T05:22:23.849Z,0.00
2022-10-23T05:23:23.615Z,0.00
2022-10-23T05:24:23.601Z,0.00
2022-10-23T05:25:23.592Z,0.00
2022-10-23T05:26:23.600Z,0.00
2022-10-23T05:27:23.594Z,0.00
2022-10-23T05:28:23.558Z,0.00
2022-10-23T05:29:23.554Z,0.00
2022-10-23T05:30:23.535Z,4.00
2022-10-23T05:31:23.526Z,4.00
2022-10-23T05:32:23.519Z,0.00
2022-10-23T05:33:23.525Z,0.00
2022-10-23T05:34:23.509Z,4.00
2022-10-23T05:35:23.479Z,4.00
2022-10-23T05:36:23.471Z,4.00
2022-10-23T05:37:23.456Z,8.00
2022-10-23T05:38:23.465Z,4.00
2022-10-23T05:39:23.454Z,4.00
2022-10-23T05:40:23.422Z,8.00
2022-10-23T05:41:23.411Z,8.00
2022-10-23T05:42:23.417Z,8.00
2022-10-23T05:43:23.388Z,12.00
2022-10-23T05:44:23.382Z,12.00
2022-10-23T05:45:23.385Z,12.00
2022-10-23T05:46:23.353Z,16.00
2022-10-23T05:47:23.344Z,16.00
2022-10-23T05:48:34.166Z,20.00
2022-10-23T05:49:24.340Z,24.00
2022-10-23T05:50:23.328Z,24.00
2022-10-23T05:51:23.324Z,32.00
2022-10-23T05:52:23.285Z,36.00
2022-10-23T05:53:23.275Z,36.00
2022-10-23T05:54:23.286Z,40.00
2022-10-23T05:55:23.252Z,44.00
2022-10-23T05:56:23.238Z,52.00
2022-10-23T05:57:23.239Z,56.00
2022-10-23T05:58:23.222Z,60.00
2022-10-23T05:59:23.427Z,64.00
2022-10-23T06:00:23.201Z,72.00
2022-10-23T06:01:23.318Z,80.00
2022-10-23T06:02:23.306Z,84.00
2022-10-23T06:03:23.163Z,96.00
2022-10-23T06:04:23.184Z,108.00
2022-10-23T06:05:23.140Z,116.00
2022-10-23T06:06:23.147Z,128.00
2022-10-23T06:07:23.116Z,140.00
2022-10-23T06:08:23.104Z,148.00
2022-10-23T06:09:23.097Z,160.00
2022-10-23T06:10:23.102Z,172.00
2022-10-23T06:11:23.123Z,188.00
2022-10-23T06:12:23.058Z,200.00
2022-10-23T06:13:23.049Z,216.00
2022-10-23T06:14:23.038Z,232.00
2022-10-23T06:15:23.048Z,252.00
2022-10-23T06:16:23.015Z,272.00
2022-10-23T06:17:23.023Z,292.00
2022-10-23T06:18:22.993Z,320.00
2022-10-23T06:19:22.979Z,352.00
2022-10-23T06:20:26.555Z,384.00
2022-10-23T06:21:23.955Z,424.00
2022-10-23T06:22:22.967Z,472.00
2022-10-23T06:23:22.935Z,516.00
2022-10-23T06:24:22.924Z,560.00
2022-10-23T06:25:22.911Z,612.00
2022-10-23T06:26:22.926Z,656.00
2022-10-23T06:27:22.888Z,708.00
2022-10-23T06:28:22.899Z,756.00
2022-10-23T06:29:22.874Z,792.00
2022-10-23T06:30:22.889Z,824.00
2022-10-23T06:31:22.844Z,852.00
2022-10-23T06:32:22.833Z,880.00
2022-10-23T06:33:22.843Z,912.00
2022-10-23T06:34:22.810Z,936.00
2022-10-23T06:35:22.797Z,952.00
2022-10-23T06:36:22.790Z,964.00
2022-10-23T06:37:22.800Z,956.00
2022-10-23T06:38:22.782Z,948.00
2022-10-23T06:39:23.207Z,928.00
2022-10-23T06:40:22.742Z,920.00
2022-10-23T06:41:22.729Z,912.00
2022-10-23T06:42:22.741Z,908.00
2022-10-23T06:43:22.709Z,908.00
2022-10-23T06:44:22.718Z,916.00
2022-10-23T06:45:22.684Z,924.00
2022-10-23T06:46:22.675Z,936.00
2022-10-23T06:47:22.663Z,948.00
2022-10-23T06:48:22.652Z,964.00
2022-10-23T06:49:22.661Z,988.00
2022-10-23T06:50:22.632Z,1012.00
2022-10-23T06:51:22.617Z,1048.00
2022-10-23T06:52:45.533Z,1084.00
2022-10-23T06:53:23.592Z,1120.00
2022-10-23T06:54:22.621Z,1160.00
2022-10-23T06:55:22.573Z,1196.00
2022-10-23T06:56:22.581Z,1232.00
2022-10-23T06:57:22.547Z,1256.00
2022-10-23T06:58:22.562Z,1272.00
2022-10-23T06:59:22.523Z,1288.00
2022-10-23T07:00:22.534Z,1304.00
2022-10-23T07:01:22.688Z,1324.00
2022-10-23T07:02:22.494Z,1348.00
2022-10-23T07:03:22.479Z,1376.00
2022-10-23T07:04:22.496Z,1416.00
2022-10-23T07:05:22.460Z,1452.00
2022-10-23T07:06:22.447Z,1488.00
2022-10-23T07:07:22.434Z,1516.00
2022-10-23T07:08:22.425Z,1536.00
2022-10-23T07:09:22.433Z,1552.00
2022-10-23T07:10:22.418Z,1560.00
2022-10-23T07:11:22.395Z,1568.00
2022-10-23T07:12:22.380Z,1584.00
2022-10-23T07:13:22.370Z,1608.00
2022-10-23T07:14:22.378Z,1644.00
2022-10-23T07:15:22.371Z,1668.00
2022-10-23T07:16:22.341Z,1704.00
2022-10-23T07:17:22.325Z,1744.00
2022-10-23T07:18:22.346Z,1808.00
2022-10-23T07:19:22.306Z,1864.00
2022-10-23T07:20:22.291Z,1924.00
2022-10-23T07:21:22.300Z,1972.00
2022-10-23T07:22:22.272Z,1992.00
2022-10-23T07:23:22.274Z,1992.00
2022-10-23T07:24:22.271Z,1980.00
2022-10-23T07:25:22.257Z,1968.00
2022-10-23T07:26:22.239Z,1960.00
2022-10-23T07:27:22.209Z,1964.00
2022-10-23T07:28:22.206Z,1988.00
2022-10-23T07:29:22.186Z,2016.00
2022-10-23T07:30:22.198Z,2044.00
2022-10-23T07:31:24.402Z,2076.00
2022-10-23T07:32:23.152Z,2100.00
2022-10-23T07:33:22.141Z,2104.00
2022-10-23T07:34:22.153Z,2096.00
2022-10-23T07:35:22.138Z,2088.00
2022-10-23T07:36:22.108Z,2080.00
2022-10-23T07:37:22.096Z,2064.00
2022-10-23T07:38:22.091Z,2060.00
2022-10-23T07:39:22.073Z,2060.00
2022-10-23T07:40:22.082Z,2060.00
2022-10-23T07:41:22.053Z,2076.00
2022-10-23T07:42:22.059Z,2084.00
2022-10-23T07:43:22.106Z,2088.00
2022-10-23T07:44:24.336Z,2100.00
2022-10-23T07:45:23.030Z,2124.00
2022-10-23T07:46:22.002Z,2148.00
2022-10-23T07:47:21.981Z,2180.00
2022-10-23T07:48:21.974Z,2220.00
2022-10-23T07:49:21.959Z,2272.00
2022-10-23T07:50:21.951Z,2324.00
2022-10-23T07:51:21.959Z,2396.00
2022-10-23T07:52:21.927Z,2476.00
2022-10-23T07:53:21.915Z,2508.00
2022-10-23T07:54:21.905Z,2612.00
2022-10-23T07:55:21.913Z,2712.00
2022-10-23T07:56:21.881Z,2792.00
2022-10-23T07:57:21.868Z,2828.00
2022-10-23T07:58:21.876Z,2904.00
2022-10-23T07:59:21.846Z,2984.00
2022-10-23T08:00:21.873Z,3008.00
2022-10-23T08:01:21.902Z,3088.00
2022-10-23T08:02:21.867Z,3120.00
2022-10-23T08:03:21.803Z,2984.00
2022-10-23T08:04:21.810Z,3076.00
2022-10-23T08:05:21.777Z,3004.00
2022-10-23T08:06:21.786Z,3012.00
2022-10-23T08:07:21.755Z,3052.00
2022-10-23T08:08:21.774Z,3220.00
2022-10-23T08:09:21.754Z,3224.00
2022-10-23T08:10:21.743Z,3268.00
2022-10-23T08:11:21.709Z,3304.00
2022-10-23T08:12:21.700Z,3400.00
2022-10-23T08:13:21.687Z,3556.00
2022-10-23T08:14:21.758Z,4044.00
2022-10-23T08:15:21.666Z,3768.00
2022-10-23T08:16:21.656Z,4292.00
2022-10-23T08:17:24.019Z,4296.00
2022-10-23T08:18:21.655Z,4268.00
2022-10-23T08:19:21.641Z,4204.00
2022-10-23T08:20:21.626Z,4056.00
2022-10-23T08:21:21.689Z,4320.00
2022-10-23T08:22:21.591Z,4200.00
2022-10-23T08:23:21.579Z,4208.00
2022-10-23T08:24:21.566Z,4172.00
2022-10-23T08:25:24.864Z,4496.00
2022-10-23T08:26:21.563Z,4176.00
2022-10-23T08:27:21.552Z,4000.00
2022-10-23T08:28:21.640Z,4080.00
2022-10-23T08:29:21.506Z,4392.00
2022-10-23T08:30:21.514Z,4436.00
2022-10-23T08:31:21.508Z,4700.00
2022-10-23T08:32:21.473Z,4668.00
2022-10-23T08:33:21.460Z,4644.00
2022-10-23T08:34:21.451Z,4068.00
2022-10-23T08:35:21.460Z,3860.00
2022-10-23T08:36:21.430Z,3932.00
2022-10-23T08:37:21.418Z,3988.00
2022-10-23T08:38:21.405Z,4108.00
2022-10-23T08:39:21.577Z,4076.00
2022-10-23T08:40:21.443Z,3904.00
2022-10-23T08:41:21.370Z,3880.00
2022-10-23T08:42:21.365Z,3880.00
2022-10-23T08:43:21.357Z,3828.00
2022-10-23T08:44:21.449Z,3792.00
2022-10-23T08:45:21.346Z,3696.00
2022-10-23T08:46:21.331Z,3656.00
2022-10-23T08:47:21.301Z,3596.00
2022-10-23T08:48:21.292Z,3544.00
2022-10-23T08:49:21.279Z,3460.00
2022-10-23T08:50:21.382Z,3416.00
2022-10-23T08:51:21.256Z,3468.00
2022-10-23T08:52:21.249Z,3612.00
2022-10-23T08:53:21.234Z,3840.00
2022-10-23T08:54:21.245Z,4052.00
2022-10-23T08:55:21.212Z,4188.00
2022-10-23T08:56:21.203Z,4280.00
2022-10-23T08:57:21.188Z,4372.00
2022-10-23T08:58:21.177Z,4416.00
2022-10-23T08:59:21.186Z,4428.00
2022-10-23T09:00:21.229Z,4352.00
2022-10-23T09:01:21.403Z,4296.00
2022-10-23T09:02:21.290Z,4276.00
2022-10-23T09:03:21.130Z,4360.00
2022-10-23T09:04:21.110Z,4460.00
2022-10-23T09:05:21.105Z,4564.00
2022-10-23T09:06:21.090Z,4388.00
2022-10-23T09:07:21.096Z,4372.00
2022-10-23T09:08:21.065Z,4460.00
2022-10-23T09:09:21.051Z,4520.00
2022-10-23T09:10:21.063Z,4612.00
2022-10-23T09:11:21.029Z,4592.00
2022-10-23T09:12:21.044Z,4572.00
2022-10-23T09:13:21.007Z,4660.00
2022-10-23T09:14:21.006Z,4604.00
2022-10-23T09:15:21.020Z,4600.00
2022-10-23T09:16:20.975Z,4736.00
2022-10-23T09:17:20.966Z,4804.00
2022-10-23T09:18:20.981Z,4788.00
2022-10-23T09:19:20.960Z,4764.00
2022-10-23T09:20:20.955Z,4796.00
2022-10-23T09:21:20.919Z,4616.00
2022-10-23T09:22:20.908Z,4476.00
2022-10-23T09:23:20.902Z,4392.00
2022-10-23T09:24:20.882Z,4356.00
2022-10-23T09:25:20.896Z,4424.00
2022-10-23T09:26:20.864Z,4440.00
2022-10-23T09:27:20.852Z,4300.00
2022-10-23T09:28:20.964Z,4260.00
2022-10-23T09:29:20.827Z,4188.00
2022-10-23T09:30:20.849Z,4148.00
2022-10-23T09:31:20.804Z,4076.00
2022-10-23T09:32:20.792Z,4020.00
2022-10-23T09:33:20.807Z,3940.00
2022-10-23T09:34:20.786Z,3908.00
2022-10-23T09:35:20.757Z,3864.00
2022-10-23T09:36:20.747Z,3836.00
2022-10-23T09:37:21.371Z,3836.00
2022-10-23T09:38:20.726Z,3816.00
2022-10-23T09:39:20.732Z,3824.00
2022-10-23T09:40:20.700Z,3880.00
2022-10-23T09:41:20.689Z,3912.00
2022-10-23T09:42:20.679Z,4244.00
2022-10-23T09:43:20.704Z,5152.00
2022-10-23T09:44:20.677Z,4324.00
2022-10-23T09:45:20.644Z,4256.00
2022-10-23T09:46:20.635Z,4208.00
2022-10-23T09:47:20.644Z,4248.00
2022-10-23T09:48:20.614Z,4332.00
2022-10-23T09:49:20.599Z,4436.00
2022-10-23T09:50:20.608Z,4540.00
2022-10-23T09:51:20.616Z,4552.00
2022-10-23T09:52:20.568Z,4644.00
2022-10-23T09:53:20.559Z,5012.00
2022-10-23T09:54:20.545Z,4668.00
2022-10-23T09:55:20.535Z,4688.00
2022-10-23T09:56:24.475Z,4868.00
2022-10-23T09:57:20.535Z,6760.00
2022-10-23T09:58:20.499Z,5328.00
2022-10-23T09:59:20.489Z,4592.00
2022-10-23T10:00:20.476Z,4564.00
2022-10-23T10:01:20.638Z,4568.00
2022-10-23T10:02:20.498Z,4588.00
2022-10-23T10:03:20.442Z,4604.00
2022-10-23T10:04:20.433Z,4620.00
2022-10-23T10:05:20.417Z,4644.00
2022-10-23T10:06:20.443Z,4672.00
2022-10-23T10:07:20.427Z,4728.00
2022-10-23T10:08:20.413Z,4900.00
2022-10-23T10:09:20.376Z,4908.00
2022-10-23T10:10:20.370Z,4932.00
2022-10-23T10:11:20.353Z,4964.00
2022-10-23T10:12:20.341Z,5020.00
2022-10-23T10:13:20.349Z,5164.00
2022-10-23T10:14:20.318Z,5132.00
2022-10-23T10:15:20.306Z,5160.00
2022-10-23T10:16:20.295Z,5624.00
2022-10-23T10:17:20.283Z,5648.00
2022-10-23T10:18:20.293Z,5420.00
2022-10-23T10:19:20.260Z,4744.00
2022-10-23T10:20:20.253Z,4644.00
2022-10-23T10:21:20.244Z,4596.00
2022-10-23T10:22:20.245Z,4560.00
2022-10-23T10:23:20.242Z,4540.00
2022-10-23T10:24:20.208Z,4588.00
2022-10-23T10:25:20.192Z,4536.00
2022-10-23T10:26:20.282Z,4492.00
2022-10-23T10:27:20.192Z,4520.00
2022-10-23T10:28:20.193Z,4560.00
2022-10-23T10:29:20.177Z,4588.00
2022-10-23T10:30:20.161Z,4596.00
2022-10-23T10:31:20.212Z,4596.00
2022-10-23T10:32:20.211Z,4636.00
2022-10-23T10:33:20.130Z,4684.00
2022-10-23T10:34:20.126Z,4560.00
2022-10-23T10:35:20.119Z,4564.00
2022-10-23T10:36:20.166Z,4572.00
2022-10-23T10:37:20.078Z,4592.00
2022-10-23T10:38:20.066Z,4924.00
2022-10-23T10:39:20.092Z,4892.00
2022-10-23T10:40:20.022Z,4972.00
2022-10-23T10:41:20.013Z,5056.00
2022-10-23T10:42:20.001Z,4868.00
2022-10-23T10:43:19.991Z,4804.00
2022-10-23T10:44:19.977Z,4900.00
2022-10-23T10:45:19.989Z,4804.00
2022-10-23T10:46:19.959Z,4908.00
2022-10-23T10:47:21.252Z,5032.00
2022-10-23T10:48:19.931Z,5388.00
2022-10-23T10:49:20.154Z,6492.00
2022-10-23T10:50:19.932Z,5904.00
2022-10-23T10:51:19.900Z,6148.00
2022-10-23T10:52:19.901Z,6356.00
2022-10-23T10:53:19.903Z,6068.00
2022-10-23T10:54:19.883Z,5572.00
2022-10-23T10:55:19.858Z,5564.00
2022-10-23T10:56:19.843Z,5760.00
2022-10-23T10:57:19.832Z,5764.00
2022-10-23T10:58:19.840Z,5848.00
2022-10-23T10:59:19.810Z,5276.00
2022-10-23T11:00:19.799Z,5208.00
2022-10-23T11:01:19.898Z,4932.00
2022-10-23T11:02:19.922Z,4304.00
2022-10-23T11:03:19.792Z,4124.00
2022-10-23T11:04:20.006Z,3948.00
2022-10-23T11:05:19.746Z,4220.00
2022-10-23T11:06:19.756Z,4328.00
2022-10-23T11:07:19.721Z,3760.00
2022-10-23T11:08:19.710Z,4332.00
2022-10-23T11:09:21.051Z,3772.00
2022-10-23T11:10:19.706Z,3872.00
2022-10-23T11:11:19.709Z,3936.00
2022-10-23T11:12:19.664Z,4512.00
2022-10-23T11:13:19.663Z,4596.00
2022-10-23T11:14:19.641Z,4452.00
2022-10-23T11:15:19.652Z,4336.00
2022-10-23T11:16:19.617Z,4176.00
2022-10-23T11:17:19.610Z,4344.00
2022-10-23T11:18:19.594Z,4328.00
2022-10-23T11:19:19.609Z,4384.00
2022-10-23T11:20:19.573Z,4292.00
2022-10-23T11:21:19.567Z,4196.00
2022-10-23T11:22:19.590Z,4172.00
2022-10-23T11:23:19.542Z,4084.00
2022-10-23T11:24:19.551Z,4012.00
2022-10-23T11:25:19.518Z,4020.00
2022-10-23T11:26:19.915Z,4044.00
2022-10-23T11:27:19.498Z,4092.00
2022-10-23T11:28:19.516Z,4152.00
2022-10-23T11:29:19.477Z,4224.00
2022-10-23T11:30:19.482Z,4292.00
2022-10-23T11:31:19.453Z,4332.00
2022-10-23T11:32:19.439Z,4376.00
2022-10-23T11:33:19.435Z,4388.00
2022-10-23T11:34:19.419Z,4400.00
2022-10-23T11:35:19.431Z,4392.00
2022-10-23T11:36:19.418Z,4360.00
2022-10-23T11:37:19.390Z,4340.00
2022-10-23T11:38:19.374Z,4332.00
2022-10-23T11:39:19.362Z,4300.00
2022-10-23T11:40:19.377Z,4280.00
2022-10-23T11:41:22.261Z,4232.00
2022-10-23T11:42:20.344Z,4176.00
2022-10-23T11:43:19.340Z,4104.00
2022-10-23T11:44:19.307Z,4048.00
2022-10-23T11:45:19.318Z,4000.00
2022-10-23T11:46:19.287Z,3960.00
2022-10-23T11:47:19.273Z,3912.00
2022-10-23T11:48:19.259Z,3880.00
2022-10-23T11:49:19.420Z,3888.00
2022-10-23T11:50:19.261Z,3896.00
2022-10-23T11:51:19.227Z,3960.00
2022-10-23T11:52:19.319Z,4020.00
2022-10-23T11:53:19.560Z,4112.00
2022-10-23T11:54:19.193Z,4176.00
2022-10-23T11:55:19.205Z,4132.00
2022-10-23T11:56:19.169Z,4124.00
2022-10-23T11:57:19.232Z,4148.00
2022-10-23T11:58:19.167Z,4132.00
2022-10-23T11:59:19.164Z,4120.00
2022-10-23T12:00:19.123Z,4104.00
2022-10-23T12:01:19.175Z,4120.00
2022-10-23T12:02:19.193Z,4148.00
2022-10-23T12:03:19.092Z,4148.00
2022-10-23T12:04:19.080Z,4148.00
2022-10-23T12:05:19.163Z,4116.00
2022-10-23T12:06:19.083Z,4104.00
2022-10-23T12:07:19.052Z,4088.00
2022-10-23T12:08:19.035Z,4052.00
2022-10-23T12:09:19.025Z,3984.00
2022-10-23T12:10:19.012Z,3912.00
2022-10-23T12:11:19.029Z,3848.00
2022-10-23T12:12:18.991Z,3820.00
2022-10-23T12:13:18.982Z,3804.00
2022-10-23T12:14:19.018Z,3828.00
2022-10-23T12:15:18.958Z,3836.00
2022-10-23T12:16:18.945Z,3852.00
2022-10-23T12:17:18.939Z,3872.00
2022-10-23T12:18:18.925Z,3856.00
2022-10-23T12:19:18.935Z,3828.00
2022-10-23T12:20:18.900Z,3784.00
2022-10-23T12:21:18.912Z,3724.00
2022-10-23T12:22:18.877Z,3656.00
2022-10-23T12:23:18.876Z,3588.00
2022-10-23T12:24:18.855Z,3520.00
2022-10-23T12:25:18.844Z,3444.00
2022-10-23T12:26:18.862Z,3372.00
2022-10-23T12:27:18.825Z,3304.00
2022-10-23T12:28:18.811Z,3236.00
2022-10-23T12:29:18.800Z,3184.00
2022-10-23T12:30:18.812Z,3140.00
2022-10-23T12:31:18.811Z,3092.00
2022-10-23T12:32:18.768Z,3048.00
2022-10-23T12:33:18.756Z,2988.00
2022-10-23T12:34:18.750Z,2928.00
2022-10-23T12:35:18.737Z,2856.00
2022-10-23T12:36:18.720Z,2784.00
2022-10-23T12:37:18.738Z,2708.00
2022-10-23T12:38:18.699Z,2640.00
2022-10-23T12:39:18.692Z,2592.00
2022-10-23T12:40:18.681Z,2560.00
2022-10-23T12:41:18.688Z,2532.00